createdAt,value
2018-05-18T00:00:19.841Z,38.90
2018-05-18T00:02:48.151Z,38.70
2018-05-18T00:05:15.688Z,39.63
2018-05-18T00:07:43.954Z,42.67
2018-05-18T00:10:11.502Z,41.73
2018-05-18T00:12:39.784Z,42.10
2018-05-18T00:15:08.118Z,41.85
2018-05-18T00:17:35.731Z,42.55
2018-05-18T00:20:04.022Z,43.40
2018-05-18T00:22:32.327Z,43.30
2018-05-18T00:24:59.955Z,43.63
2018-05-18T00:27:27.474Z,44.85
2018-05-18T00:29:55.045Z,44.37
2018-05-18T00:32:22.602Z,43.47
2018-05-18T00:34:50.186Z,43.40
2018-05-18T00:37:18.481Z,41.35
2018-05-18T00:39:46.818Z,40.72
2018-05-18T00:42:15.097Z,41.83
2018-05-18T00:44:42.688Z,43.13
2018-05-18T00:47:10.233Z,41.83
2018-05-18T00:49:38.569Z,43.47
2018-05-18T00:52:06.111Z,42.25
2018-05-18T00:54:33.664Z,42.90
2018-05-18T00:57:01.205Z,39.78
2018-05-18T00:59:28.733Z,35.75
2018-05-18T01:01:56.255Z,37.05
2018-05-18T01:04:23.800Z,37.65
2018-05-18T01:06:51.345Z,34.80
2018-05-18T01:09:18.880Z,35.50
2018-05-18T01:11:47.209Z,35.65
2018-05-18T01:14:14.817Z,37.38
2018-05-18T01:16:43.184Z,39.70
2018-05-18T01:19:10.738Z,39.47
2018-05-18T01:21:38.247Z,40.88
2018-05-18T01:24:06.559Z,41.28
2018-05-18T01:26:34.101Z,43.85
2018-05-18T01:29:01.679Z,49.75
2018-05-18T01:31:29.246Z,52.60
2018-05-18T01:33:56.770Z,52.55
2018-05-18T01:36:24.328Z,55.05
2018-05-18T01:38:51.916Z,49.40
2018-05-18T01:41:19.516Z,47.17
2018-05-18T01:43:47.830Z,43.45
2018-05-18T01:46:15.381Z,43.90
2018-05-18T01:48:42.957Z,40.90
2018-05-18T01:51:10.512Z,41.15
2018-05-18T01:53:38.084Z,43.55
2018-05-18T01:56:05.687Z,44.45
2018-05-18T01:58:34.018Z,44.47
2018-05-18T02:01:01.558Z,45.53
2018-05-18T02:03:29.113Z,46.05
2018-05-18T02:05:57.547Z,45.00
2018-05-18T02:08:25.109Z,46.65
2018-05-18T02:10:53.436Z,47.35
2018-05-18T02:13:21.838Z,48.72
2018-05-18T02:15:49.362Z,44.33
2018-05-18T02:18:16.987Z,41.75
2018-05-18T02:20:44.584Z,42.03
2018-05-18T02:23:12.095Z,45.17
2018-05-18T02:25:39.612Z,44.00
2018-05-18T02:28:07.145Z,38.92
2018-05-18T02:30:34.693Z,38.65
2018-05-18T02:33:03.006Z,40.08
2018-05-18T02:35:30.585Z,42.40
2018-05-18T02:37:58.101Z,42.47
2018-05-18T02:40:25.703Z,42.10
2018-05-18T02:42:53.279Z,41.13
2018-05-18T02:45:20.818Z,46.95
2018-05-18T02:47:48.364Z,44.72
2018-05-18T02:50:15.894Z,45.33
2018-05-18T02:52:43.426Z,44.65
2018-05-18T02:55:10.947Z,44.70
2018-05-18T02:57:38.519Z,42.15
2018-05-18T03:00:06.050Z,42.40
2018-05-18T03:02:33.608Z,43.00
2018-05-18T03:05:01.148Z,40.40
2018-05-18T03:07:28.704Z,40.88
2018-05-18T03:09:56.236Z,38.55
2018-05-18T03:12:23.785Z,47.92
2018-05-18T03:14:51.359Z,59.05
2018-05-18T03:17:18.891Z,55.67
2018-05-18T03:19:46.462Z,52.45
2018-05-18T03:22:13.969Z,53.13
2018-05-18T03:24:41.500Z,55.22
2018-05-18T03:27:09.776Z,51.05
2018-05-18T03:29:38.070Z,56.75
2018-05-18T03:32:06.377Z,57.83
2018-05-18T03:34:33.899Z,58.00
2018-05-18T03:37:01.478Z,54.63
2018-05-18T03:39:29.019Z,63.83
2018-05-18T03:41:56.572Z,54.25
2018-05-18T03:44:24.896Z,61.40
2018-05-18T03:46:52.447Z,65.43
2018-05-18T03:49:20.015Z,56.65
2018-05-18T03:51:47.583Z,49.78
2018-05-18T03:54:15.118Z,51.15
2018-05-18T03:56:42.659Z,52.22
2018-05-18T03:59:10.959Z,51.75
2018-05-18T04:01:50.153Z,58.22
2018-05-18T04:04:30.205Z,55.20
2018-05-18T04:07:10.448Z,53.17
2018-05-18T04:09:38.043Z,42.47
2018-05-18T04:12:05.574Z,40.90
2018-05-18T04:14:33.098Z,41.40
2018-05-18T04:17:00.627Z,44.05
2018-05-18T04:19:28.184Z,40.53
2018-05-18T04:21:56.553Z,40.97
2018-05-18T04:24:24.168Z,38.70
2018-05-18T04:26:51.713Z,37.42
2018-05-18T04:29:19.264Z,40.00
2018-05-18T04:31:46.822Z,38.38
2018-05-18T04:34:28.018Z,39.88
2018-05-18T04:36:55.535Z,38.58
2018-05-18T04:39:23.059Z,37.83
2018-05-18T04:41:50.569Z,34.17
2018-05-18T04:44:18.112Z,32.05
2018-05-18T04:46:45.844Z,35.63
2018-05-18T04:49:13.373Z,34.20
2018-05-18T04:51:40.907Z,32.42
2018-05-18T04:54:08.436Z,32.83
2018-05-18T04:56:36.733Z,29.75
2018-05-18T04:59:04.290Z,29.05
2018-05-18T05:01:31.800Z,30.98
2018-05-18T05:03:59.373Z,31.30
2018-05-18T05:06:27.667Z,30.37
2018-05-18T05:08:56.033Z,28.62
2018-05-18T05:11:24.313Z,27.83
2018-05-18T05:13:52.612Z,28.50
2018-05-18T05:16:20.169Z,28.65
2018-05-18T05:18:47.713Z,28.55
2018-05-18T05:21:15.257Z,27.90
2018-05-18T05:23:43.622Z,27.15
2018-05-18T05:26:11.137Z,29.15
2018-05-18T05:28:38.655Z,27.10
2018-05-18T05:31:06.938Z,26.65
2018-05-18T05:33:35.250Z,25.60
2018-05-18T05:36:02.806Z,25.30
2018-05-18T05:38:30.377Z,26.83
2018-05-18T05:40:57.922Z,24.35
2018-05-18T05:43:25.438Z,24.40
2018-05-18T05:45:53.716Z,24.02
2018-05-18T05:48:22.050Z,24.77
2018-05-18T05:50:49.577Z,24.58
2018-05-18T05:53:17.098Z,24.27
2018-05-18T05:55:44.604Z,23.07
2018-05-18T05:58:12.104Z,25.62
2018-05-18T06:00:39.635Z,24.95
2018-05-18T06:03:07.153Z,25.15
2018-05-18T06:05:35.457Z,24.50
2018-05-18T06:08:03.009Z,23.37
2018-05-18T06:10:30.522Z,23.80
2018-05-18T06:12:58.060Z,23.60
2018-05-18T06:15:25.574Z,23.87
2018-05-18T06:17:53.150Z,23.63
2018-05-18T06:20:20.752Z,23.67
2018-05-18T06:22:48.338Z,24.90
2018-05-18T06:25:16.631Z,24.90
2018-05-18T06:27:44.205Z,23.60
2018-05-18T06:30:11.781Z,24.60
2018-05-18T06:32:39.380Z,24.20
2018-05-18T06:35:07.029Z,26.07
2018-05-18T06:37:34.604Z,26.40
2018-05-18T06:40:02.119Z,26.40
2018-05-18T06:42:29.689Z,25.10
2018-05-18T06:44:57.222Z,25.47
2018-05-18T06:47:24.751Z,24.40
2018-05-18T06:49:53.097Z,25.57
2018-05-18T06:52:20.693Z,26.80
2018-05-18T06:54:48.972Z,24.40
2018-05-18T06:57:17.284Z,22.63
2018-05-18T06:59:44.857Z,20.83
2018-05-18T07:02:12.445Z,24.40
2018-05-18T07:04:39.998Z,24.67
2018-05-18T07:07:07.522Z,21.53
2018-05-18T07:09:35.096Z,21.40
2018-05-18T07:12:02.717Z,22.33
2018-05-18T07:14:30.221Z,21.50
2018-05-18T07:16:57.814Z,20.53
2018-05-18T07:19:25.365Z,21.50
2018-05-18T07:21:52.937Z,20.30
2018-05-18T07:24:21.238Z,20.90
2018-05-18T07:26:48.793Z,19.43
2018-05-18T07:29:16.329Z,19.60
2018-05-18T07:31:44.654Z,17.57
2018-05-18T07:34:12.200Z,18.60
2018-05-18T07:36:40.720Z,18.73
2018-05-18T07:39:08.478Z,17.30
2018-05-18T07:41:35.984Z,18.70
2018-05-18T07:44:03.550Z,18.30
2018-05-18T07:46:31.067Z,19.57
2018-05-18T07:48:58.645Z,19.10
2018-05-18T07:51:26.961Z,19.13
2018-05-18T07:53:54.531Z,19.27
2018-05-18T07:56:22.057Z,20.10
2018-05-18T07:58:49.601Z,19.67
2018-05-18T08:01:17.906Z,19.30
2018-05-18T08:03:45.513Z,19.00
2018-05-18T08:06:13.049Z,20.43
2018-05-18T08:08:40.574Z,19.10
2018-05-18T08:11:08.867Z,17.70
2018-05-18T08:13:36.388Z,18.13
2018-05-18T08:16:03.913Z,18.90
2018-05-18T08:18:31.520Z,17.57
2018-05-18T08:20:59.827Z,17.73
2018-05-18T08:23:39.234Z,18.50
2018-05-18T08:26:07.547Z,18.87
2018-05-18T08:28:46.817Z,17.97
2018-05-18T08:31:14.349Z,17.00
2018-05-18T08:33:41.885Z,16.90
2018-05-18T08:36:09.453Z,16.40
2018-05-18T08:38:36.983Z,15.50
2018-05-18T08:41:04.517Z,15.77
2018-05-18T08:43:32.114Z,15.93
2018-05-18T08:45:59.662Z,15.60
2018-05-18T08:48:27.970Z,15.53
2018-05-18T08:50:55.496Z,14.17
2018-05-18T08:53:23.789Z,14.37
2018-05-18T08:55:51.294Z,15.30
2018-05-18T08:58:18.825Z,14.73
2018-05-18T09:00:46.352Z,13.60
2018-05-18T09:03:13.910Z,14.60
2018-05-18T09:05:41.455Z,13.63
2018-05-18T09:08:09.768Z,13.70
2018-05-18T09:10:37.260Z,12.30
2018-05-18T09:13:04.777Z,11.70
2018-05-18T09:15:32.272Z,12.40
2018-05-18T09:17:59.827Z,13.20
2018-05-18T09:20:27.361Z,13.40
2018-05-18T09:22:55.684Z,14.23
2018-05-18T09:25:23.193Z,13.37
2018-05-18T09:27:50.761Z,13.90
2018-05-18T09:30:18.274Z,14.80
2018-05-18T09:32:45.802Z,13.77
2018-05-18T09:35:13.395Z,13.83
2018-05-18T09:37:40.909Z,13.93
2018-05-18T09:40:08.433Z,14.87
2018-05-18T09:42:36.740Z,14.67
2018-05-18T09:45:04.342Z,14.90
2018-05-18T09:47:31.875Z,14.30
2018-05-18T09:49:59.382Z,14.77
2018-05-18T09:52:27.669Z,15.23
2018-05-18T09:54:55.422Z,17.10
2018-05-18T09:57:23.498Z,16.60
2018-05-18T09:59:51.082Z,15.90
2018-05-18T10:02:18.621Z,15.80
2018-05-18T10:04:46.187Z,14.70
2018-05-18T10:07:13.714Z,14.00
2018-05-18T10:09:41.979Z,14.30
2018-05-18T10:12:09.529Z,12.67
2018-05-18T10:14:37.102Z,14.00
2018-05-18T10:17:04.648Z,12.37
2018-05-18T10:19:32.180Z,12.80
2018-05-18T10:22:00.197Z,12.47
2018-05-18T10:24:28.465Z,12.00
2018-05-18T10:26:56.073Z,11.00
2018-05-18T10:29:23.585Z,10.77
2018-05-18T10:31:51.101Z,11.27
2018-05-18T10:34:18.606Z,11.10
2018-05-18T10:36:46.910Z,10.87
2018-05-18T10:39:14.442Z,10.40
2018-05-18T10:41:42.814Z,10.13
2018-05-18T10:44:10.360Z,10.80
2018-05-18T10:46:37.882Z,11.00
2018-05-18T10:49:05.441Z,11.00
2018-05-18T10:51:33.002Z,11.47
2018-05-18T10:54:00.496Z,10.17
2018-05-18T10:56:28.000Z,10.83
2018-05-18T10:58:55.521Z,9.80
2018-05-18T11:01:23.041Z,11.30
2018-05-18T11:03:50.587Z,10.30
2018-05-18T11:06:18.062Z,11.30
2018-05-18T11:08:45.541Z,11.90
2018-05-18T11:11:13.027Z,10.30
2018-05-18T11:13:41.341Z,10.23
2018-05-18T11:16:08.864Z,10.40
2018-05-18T11:18:37.234Z,11.13
2018-05-18T11:21:05.503Z,10.00
2018-05-18T11:23:33.008Z,9.70
2018-05-18T11:26:00.529Z,10.30
2018-05-18T11:28:28.829Z,9.70
2018-05-18T11:30:56.357Z,10.33
2018-05-18T11:33:23.908Z,10.00
2018-05-18T11:35:51.426Z,10.03
2018-05-18T11:38:18.937Z,9.50
2018-05-18T11:40:47.269Z,9.83
2018-05-18T11:43:14.781Z,10.67
2018-05-18T11:45:43.139Z,10.80
2018-05-18T11:48:10.705Z,10.87
2018-05-18T11:50:38.232Z,11.70
2018-05-18T11:53:05.753Z,10.60
2018-05-18T11:55:33.283Z,11.10
2018-05-18T11:58:00.806Z,10.30
2018-05-18T12:00:28.301Z,10.17
2018-05-18T12:03:10.967Z,10.27
2018-05-18T12:05:38.493Z,11.23
2018-05-18T12:08:06.018Z,12.00
2018-05-18T12:10:33.532Z,11.77
2018-05-18T12:13:01.066Z,13.40
2018-05-18T12:15:28.605Z,11.80
2018-05-18T12:17:56.904Z,11.27
2018-05-18T12:20:24.549Z,12.13
2018-05-18T12:22:52.068Z,12.37
2018-05-18T12:25:19.620Z,12.53
2018-05-18T12:27:47.163Z,12.37
2018-05-18T12:30:14.689Z,12.50
2018-05-18T12:32:42.978Z,11.43
2018-05-18T12:35:10.555Z,12.50
2018-05-18T12:37:38.089Z,12.20
2018-05-18T12:40:05.605Z,12.37
2018-05-18T12:42:33.134Z,11.20
2018-05-18T12:45:00.670Z,12.40
2018-05-18T12:47:28.180Z,12.23
2018-05-18T12:49:55.673Z,12.13
2018-05-18T12:52:23.949Z,12.70
2018-05-18T12:54:52.210Z,12.13
2018-05-18T12:57:19.721Z,11.50
2018-05-18T12:59:47.245Z,11.80
2018-05-18T13:02:15.542Z,12.77
2018-05-18T13:04:43.064Z,12.50
2018-05-18T13:07:10.617Z,11.53
2018-05-18T13:09:38.121Z,11.60
2018-05-18T13:12:05.676Z,10.30
2018-05-18T13:14:33.211Z,11.53
2018-05-18T13:17:02.529Z,11.53
2018-05-18T13:19:35.809Z,12.40
2018-05-18T13:22:03.376Z,11.47
2018-05-18T13:24:32.662Z,12.00
2018-05-18T13:27:01.046Z,13.30
2018-05-18T13:29:37.812Z,12.30
2018-05-18T13:32:06.164Z,11.43
2018-05-18T13:34:33.682Z,12.20
2018-05-18T13:37:01.263Z,12.30
2018-05-18T13:39:30.809Z,11.17
2018-05-18T13:41:58.256Z,11.10
2018-05-18T13:44:25.784Z,12.20
2018-05-18T13:46:53.364Z,11.00
2018-05-18T13:49:20.928Z,11.70
2018-05-18T13:51:48.529Z,13.50
2018-05-18T13:54:15.961Z,11.70
2018-05-18T13:56:43.457Z,10.90
2018-05-18T13:59:10.969Z,11.47
2018-05-18T14:01:38.509Z,11.10
2018-05-18T14:04:06.070Z,11.70
2018-05-18T14:06:33.566Z,10.07
2018-05-18T14:09:01.854Z,10.70
2018-05-18T14:11:31.751Z,11.40
2018-05-18T14:14:00.039Z,10.20
2018-05-18T14:16:28.328Z,10.70
2018-05-18T14:18:55.874Z,11.23
2018-05-18T14:21:24.148Z,11.07
2018-05-18T14:23:51.685Z,10.53
2018-05-18T14:26:20.060Z,10.70
2018-05-18T14:28:47.634Z,12.67
2018-05-18T14:31:15.962Z,11.30
2018-05-18T14:33:43.496Z,11.03
2018-05-18T14:36:11.146Z,10.40
2018-05-18T14:38:39.453Z,10.30
2018-05-18T14:41:06.974Z,11.07
2018-05-18T14:43:35.276Z,9.93
2018-05-18T14:46:02.815Z,10.87
2018-05-18T14:48:31.109Z,9.23
2018-05-18T14:50:58.633Z,9.80
2018-05-18T14:53:26.930Z,11.10
2018-05-18T14:56:13.344Z,10.27
2018-05-18T15:10:19.749Z,10.53
2018-05-18T15:12:47.258Z,9.53
2018-05-18T15:15:14.843Z,10.20
2018-05-18T15:17:42.425Z,10.80
2018-05-18T15:20:09.974Z,10.37
2018-05-18T15:22:37.502Z,9.20
2018-05-18T15:25:04.993Z,10.10
2018-05-18T15:27:32.501Z,9.67
2018-05-18T15:30:00.039Z,10.07
2018-05-18T15:32:27.551Z,10.03
2018-05-18T15:34:55.085Z,8.90
2018-05-18T15:37:22.654Z,10.00
2018-05-18T15:39:50.889Z,8.93
2018-05-18T15:42:19.226Z,9.70
2018-05-18T15:44:46.733Z,9.37
2018-05-18T15:47:14.286Z,10.27
2018-05-18T15:49:42.630Z,8.10
2018-05-18T15:52:10.118Z,8.53
2018-05-18T15:54:38.491Z,8.70
2018-05-18T15:57:06.778Z,8.77
2018-05-18T15:59:35.097Z,9.20
2018-05-18T16:02:02.622Z,8.83
2018-05-18T16:04:30.135Z,8.90
2018-05-18T16:06:57.646Z,8.47
2018-05-18T16:09:25.156Z,8.20
2018-05-18T16:11:58.278Z,9.17
2018-05-18T16:14:26.638Z,8.27
2018-05-18T16:16:54.924Z,14.00
2018-05-18T16:19:23.217Z,9.73
2018-05-18T16:21:50.733Z,9.43
2018-05-18T16:24:18.247Z,8.80
2018-05-18T16:26:45.768Z,8.50
2018-05-18T16:29:14.075Z,9.00
2018-05-18T16:31:41.619Z,8.53
2018-05-18T16:34:09.140Z,9.80
2018-05-18T16:36:36.650Z,8.40
2018-05-18T16:39:04.188Z,8.80
2018-05-18T16:41:31.758Z,8.87
2018-05-18T16:43:59.282Z,9.30
2018-05-18T16:46:40.949Z,9.40
2018-05-18T16:49:08.470Z,8.53
2018-05-18T16:51:36.021Z,8.43
2018-05-18T16:54:03.560Z,8.67
2018-05-18T16:56:31.835Z,13.03
2018-05-18T16:58:59.438Z,10.77
2018-05-18T17:01:26.955Z,9.23
2018-05-18T17:03:54.472Z,9.70
2018-05-18T17:06:21.973Z,9.33
2018-05-18T17:08:50.258Z,8.77
2018-05-18T17:11:18.545Z,8.80
2018-05-18T17:13:46.111Z,8.57
2018-05-18T17:16:13.631Z,8.40
2018-05-18T17:18:41.174Z,8.70
2018-05-18T17:21:08.721Z,9.13
2018-05-18T17:23:36.334Z,8.30
2018-05-18T17:26:03.859Z,8.53
2018-05-18T17:28:31.378Z,8.50
2018-05-18T17:30:58.943Z,8.63
2018-05-18T17:33:26.471Z,8.97
2018-05-18T17:35:54.742Z,9.07
2018-05-18T17:38:23.013Z,9.13
2018-05-18T17:40:51.320Z,8.83
2018-05-18T17:43:18.826Z,8.47
2018-05-18T17:45:46.412Z,8.93
2018-05-18T17:48:14.708Z,9.03
2018-05-18T17:50:42.272Z,9.77
2018-05-18T17:53:09.854Z,9.03
2018-05-18T17:55:37.440Z,9.10
2018-05-18T17:58:04.981Z,8.80
2018-05-18T18:00:32.580Z,8.83
2018-05-18T18:03:00.878Z,8.47
2018-05-18T18:05:28.429Z,8.30
2018-05-18T18:07:56.755Z,9.50
2018-05-18T18:10:24.237Z,9.87
2018-05-18T18:12:51.756Z,8.17
2018-05-18T18:18:14.771Z,9.13
2018-05-18T18:20:42.323Z,9.00
2018-05-18T18:23:09.839Z,8.90
2018-05-18T18:25:37.437Z,9.37
2018-05-18T18:28:04.975Z,8.70
2018-05-18T18:30:32.477Z,9.07
2018-05-18T18:33:00.753Z,9.00
2018-05-18T18:35:29.122Z,9.57
2018-05-18T18:37:56.674Z,8.83
2018-05-18T18:40:24.264Z,9.87
2018-05-18T18:42:51.835Z,10.10
2018-05-18T18:45:19.387Z,9.00
2018-05-18T18:47:46.954Z,9.13
2018-05-18T18:50:14.462Z,8.07
2018-05-18T18:52:41.974Z,9.30
2018-05-18T18:55:09.531Z,8.33
2018-05-18T18:57:37.035Z,8.83
2018-05-18T19:00:04.548Z,8.87
2018-05-18T19:11:22.736Z,9.00
2018-05-18T19:13:50.251Z,8.93
2018-05-18T19:16:17.846Z,9.50
2018-05-18T19:18:46.119Z,9.17
2018-05-18T19:21:14.408Z,9.10
2018-05-18T19:23:41.970Z,9.40
2018-05-18T19:26:09.531Z,10.20
2018-05-18T19:28:37.094Z,10.10
2018-05-18T19:31:04.673Z,10.40
2018-05-18T19:33:32.218Z,10.30
2018-05-18T19:35:59.736Z,10.10
2018-05-18T19:38:35.758Z,9.37
2018-05-18T19:41:03.359Z,8.93
2018-05-18T19:43:31.696Z,9.40
2018-05-18T19:45:59.272Z,10.50
2018-05-18T19:48:26.837Z,9.93
2018-05-18T19:50:54.430Z,10.27
2018-05-18T19:53:21.995Z,9.23
2018-05-18T19:55:50.308Z,10.33
2018-05-18T19:58:17.829Z,9.90
2018-05-18T20:00:45.349Z,12.00
2018-05-18T20:09:02.726Z,10.20
2018-05-18T20:11:31.039Z,10.20
2018-05-18T20:13:59.381Z,10.87
2018-05-18T20:16:27.701Z,11.33
2018-05-18T20:18:55.285Z,11.20
2018-05-18T20:21:22.836Z,11.03
2018-05-18T20:23:50.371Z,11.30
2018-05-18T20:26:17.933Z,10.70
2018-05-18T20:28:45.478Z,11.47
2018-05-18T20:31:13.051Z,11.03
2018-05-18T20:33:40.570Z,11.37
2018-05-18T20:36:08.877Z,12.50
2018-05-18T20:38:36.440Z,10.63
2018-05-18T20:41:03.948Z,12.40
2018-05-18T20:43:31.519Z,10.80
2018-05-18T20:45:59.042Z,12.20
2018-05-18T20:48:27.403Z,12.17
2018-05-18T20:50:54.940Z,12.87
2018-05-18T20:53:22.466Z,13.53
2018-05-18T20:55:50.024Z,13.17
2018-05-18T20:58:19.974Z,13.50
2018-05-18T21:00:47.580Z,13.77
2018-05-18T21:03:15.184Z,13.33
2018-05-18T21:05:43.507Z,14.23
2018-05-18T21:08:11.081Z,13.70
2018-05-18T21:10:38.708Z,13.37
2018-05-18T21:13:06.199Z,13.07
2018-05-18T21:15:33.743Z,13.77
2018-05-18T21:18:01.281Z,15.23
2018-05-18T21:20:28.853Z,13.90
2018-05-18T21:22:56.452Z,13.73
2018-05-18T21:25:23.965Z,15.20
2018-05-18T21:27:51.498Z,15.43
2018-05-18T21:30:19.063Z,13.97
2018-05-18T21:32:46.596Z,14.27
2018-05-18T21:35:14.168Z,14.63
2018-05-18T21:37:42.465Z,15.27
2018-05-18T21:40:10.026Z,15.53
2018-05-18T21:42:37.537Z,14.90
2018-05-18T21:45:05.081Z,16.20
2018-05-18T21:47:32.615Z,16.20
2018-05-18T21:50:00.178Z,14.50
2018-05-18T21:52:27.745Z,14.93
2018-05-18T21:54:55.316Z,15.20
2018-05-18T21:57:22.846Z,15.10
2018-05-18T21:59:50.429Z,16.93
2018-05-18T22:02:17.989Z,17.67
2018-05-18T22:04:45.620Z,18.10
2018-05-18T22:07:13.182Z,16.77
2018-05-18T22:09:40.738Z,18.83
2018-05-18T22:12:08.261Z,18.97
2018-05-18T22:14:35.781Z,19.37
2018-05-18T22:17:03.344Z,19.40
2018-05-18T22:19:30.898Z,19.20
2018-05-18T22:21:58.431Z,19.53
2018-05-18T22:24:25.986Z,18.30
2018-05-18T22:26:53.516Z,18.67
2018-05-18T22:29:21.814Z,17.77
2018-05-18T22:31:49.364Z,17.30
2018-05-18T22:34:16.900Z,17.77
2018-05-18T22:36:44.437Z,20.20
2018-05-18T22:39:12.004Z,17.63
2018-05-18T22:41:39.649Z,16.90
2018-05-18T22:44:07.170Z,17.97
2018-05-18T22:46:34.718Z,19.50
2018-05-18T22:49:02.280Z,18.17
2018-05-18T22:51:29.854Z,21.73
2018-05-18T22:53:57.469Z,19.87
2018-05-18T22:56:25.019Z,18.00
2018-05-18T22:58:52.616Z,18.90
2018-05-18T23:01:20.877Z,19.17
2018-05-18T23:03:48.431Z,19.50
2018-05-18T23:06:15.982Z,20.50
2018-05-18T23:08:43.540Z,18.80
2018-05-18T23:11:11.047Z,17.67
2018-05-18T23:13:38.591Z,19.43
2018-05-18T23:16:06.928Z,18.53
2018-05-18T23:18:34.438Z,19.00
2018-05-18T23:21:02.042Z,18.67
2018-05-18T23:23:29.574Z,18.43
2018-05-18T23:25:57.605Z,18.80
2018-05-18T23:28:25.961Z,18.73
2018-05-18T23:30:53.561Z,19.27
2018-05-18T23:33:21.097Z,19.27
2018-05-18T23:35:48.624Z,18.17
2018-05-18T23:38:16.247Z,19.33
2018-05-18T23:40:43.782Z,20.13
2018-05-18T23:43:12.073Z,18.30
2018-05-18T23:45:55.021Z,16.83
2018-05-18T23:48:22.602Z,18.93
2018-05-18T23:50:50.126Z,18.93
2018-05-18T23:53:17.675Z,18.43
2018-05-18T23:55:45.237Z,19.07
2018-05-18T23:58:12.774Z,18.23
